createdAt,value
2019-03-31T00:00:24.461Z,22.00
2019-03-31T00:01:36.064Z,21.70
2019-03-31T00:02:39.186Z,21.35
2019-03-31T00:03:42.416Z,20.90
2019-03-31T00:04:45.616Z,22.42
2019-03-31T00:05:50.178Z,21.57
2019-03-31T00:06:53.378Z,21.82
2019-03-31T00:07:56.561Z,21.12
2019-03-31T00:09:00.040Z,22.77
2019-03-31T00:10:03.733Z,22.20
2019-03-31T00:11:06.957Z,21.25
2019-03-31T00:12:10.191Z,22.82
2019-03-31T00:13:13.479Z,21.15
2019-03-31T00:14:16.689Z,22.25
2019-03-31T00:15:19.913Z,22.30
2019-03-31T00:16:23.141Z,19.95
2019-03-31T00:17:26.349Z,19.35
2019-03-31T00:18:29.573Z,18.37
2019-03-31T00:19:32.805Z,19.52
2019-03-31T00:20:36.016Z,20.23
2019-03-31T00:21:39.256Z,20.85
2019-03-31T00:22:42.577Z,20.17
2019-03-31T00:23:45.753Z,19.17
2019-03-31T00:24:48.961Z,20.23
2019-03-31T00:25:52.177Z,19.65
2019-03-31T00:26:55.524Z,19.82
2019-03-31T00:27:58.821Z,20.00
2019-03-31T00:29:02.030Z,20.77
2019-03-31T00:30:05.705Z,19.25
2019-03-31T00:31:21.539Z,20.35
2019-03-31T00:32:14.081Z,19.90
2019-03-31T00:33:17.292Z,20.80
2019-03-31T00:34:20.533Z,21.50
2019-03-31T00:35:23.726Z,21.27
2019-03-31T00:36:26.910Z,20.60
2019-03-31T00:37:30.178Z,20.25
2019-03-31T00:38:33.401Z,20.27
2019-03-31T00:39:36.604Z,20.82
2019-03-31T00:40:39.805Z,22.07
2019-03-31T00:41:43.053Z,21.10
2019-03-31T00:42:46.284Z,21.73
2019-03-31T00:43:49.506Z,22.32
2019-03-31T00:44:55.520Z,21.55
2019-03-31T00:45:58.731Z,22.42
2019-03-31T00:47:02.267Z,23.55
2019-03-31T00:48:05.936Z,23.15
2019-03-31T00:49:09.485Z,21.25
2019-03-31T00:50:12.784Z,22.87
2019-03-31T00:51:15.973Z,22.45
2019-03-31T00:52:19.311Z,23.47
2019-03-31T00:53:22.547Z,21.10
2019-03-31T00:54:27.730Z,21.57
2019-03-31T00:55:31.025Z,21.70
2019-03-31T00:56:34.209Z,22.65
2019-03-31T00:57:37.405Z,22.50
2019-03-31T00:58:40.917Z,23.12
2019-03-31T00:59:44.185Z,22.77
2019-03-31T01:01:05.044Z,23.05
2019-03-31T01:02:12.445Z,22.70
2019-03-31T01:03:17.801Z,22.50
2019-03-31T01:04:25.124Z,22.85
2019-03-31T01:05:28.345Z,21.70
2019-03-31T01:06:32.108Z,22.90
2019-03-31T01:07:35.441Z,21.33
2019-03-31T01:08:38.735Z,22.55
2019-03-31T01:09:42.184Z,22.95
2019-03-31T01:10:45.782Z,24.85
2019-03-31T01:11:49.206Z,23.38
2019-03-31T01:12:52.413Z,24.60
2019-03-31T01:13:55.827Z,24.07
2019-03-31T01:14:59.284Z,23.73
2019-03-31T01:16:02.572Z,24.90
2019-03-31T01:17:10.330Z,24.20
2019-03-31T01:18:13.583Z,23.65
2019-03-31T01:19:19.200Z,24.35
2019-03-31T01:20:22.561Z,24.45
2019-03-31T01:21:25.740Z,25.45
2019-03-31T01:22:28.966Z,25.45
2019-03-31T01:23:32.177Z,24.12
2019-03-31T01:24:35.360Z,25.05
2019-03-31T01:25:38.613Z,24.12
2019-03-31T01:26:42.032Z,23.60
2019-03-31T01:27:45.225Z,23.73
2019-03-31T01:28:48.685Z,24.47
2019-03-31T01:29:51.965Z,23.60
2019-03-31T01:30:55.357Z,24.55
2019-03-31T01:31:58.620Z,23.35
2019-03-31T01:33:02.005Z,23.92
2019-03-31T01:34:05.373Z,24.35
2019-03-31T01:35:10.045Z,22.93
2019-03-31T01:36:13.583Z,25.23
2019-03-31T01:37:19.945Z,24.65
2019-03-31T01:38:22.245Z,23.07
2019-03-31T01:39:27.066Z,23.80
2019-03-31T01:40:30.293Z,23.02
2019-03-31T01:41:33.654Z,24.75
2019-03-31T01:42:36.885Z,24.92
2019-03-31T01:43:40.076Z,23.95
2019-03-31T01:44:43.301Z,24.43
2019-03-31T01:45:46.545Z,24.00
2019-03-31T01:46:50.130Z,25.52
2019-03-31T01:47:53.345Z,22.35
2019-03-31T01:48:56.645Z,25.50
2019-03-31T01:49:59.883Z,25.37
2019-03-31T01:51:03.254Z,23.65
2019-03-31T01:52:06.862Z,25.65
2019-03-31T01:53:10.125Z,25.48
2019-03-31T01:54:13.977Z,25.70
2019-03-31T01:55:17.515Z,26.12
2019-03-31T01:56:20.905Z,24.32
2019-03-31T01:57:24.135Z,24.20
2019-03-31T01:58:27.367Z,24.18
2019-03-31T01:59:30.558Z,24.87
2019-03-31T02:00:54.828Z,24.35
2019-03-31T02:02:04.057Z,23.47
2019-03-31T02:03:03.439Z,23.25
2019-03-31T02:04:06.710Z,24.32
2019-03-31T02:05:10.097Z,24.37
2019-03-31T02:06:13.297Z,23.95
2019-03-31T02:07:16.476Z,23.18
2019-03-31T02:08:19.716Z,23.42
2019-03-31T02:09:22.911Z,24.50
2019-03-31T02:10:26.177Z,25.05
2019-03-31T02:11:29.385Z,24.12
2019-03-31T02:12:32.561Z,24.52
2019-03-31T02:13:35.849Z,25.55
2019-03-31T02:14:39.068Z,24.47
2019-03-31T02:15:42.282Z,23.80
2019-03-31T02:16:45.578Z,24.15
2019-03-31T02:17:48.797Z,24.82
2019-03-31T02:18:52.093Z,25.12
2019-03-31T02:19:55.286Z,25.60
2019-03-31T02:20:58.580Z,24.45
2019-03-31T02:22:01.784Z,24.67
2019-03-31T02:23:05.010Z,25.10
2019-03-31T02:24:08.289Z,24.67
2019-03-31T02:25:11.462Z,23.60
2019-03-31T02:26:14.700Z,23.67
2019-03-31T02:27:18.145Z,24.12
2019-03-31T02:28:21.356Z,23.47
2019-03-31T02:29:24.664Z,24.65
2019-03-31T02:30:27.849Z,24.43
2019-03-31T02:31:31.066Z,24.50
2019-03-31T02:32:34.250Z,24.30
2019-03-31T02:33:37.430Z,24.47
2019-03-31T02:34:40.882Z,24.40
2019-03-31T02:35:44.076Z,25.40
2019-03-31T02:36:47.302Z,23.38
2019-03-31T02:37:50.541Z,23.18
2019-03-31T02:38:53.756Z,21.57
2019-03-31T02:39:57.039Z,20.48
2019-03-31T02:41:00.237Z,21.68
2019-03-31T02:42:03.479Z,22.15
2019-03-31T02:43:06.717Z,21.00
2019-03-31T02:44:10.151Z,21.35
2019-03-31T02:45:13.374Z,20.10
2019-03-31T02:46:16.648Z,20.10
2019-03-31T02:47:19.849Z,20.32
2019-03-31T02:48:23.105Z,20.23
2019-03-31T02:49:26.298Z,19.95
2019-03-31T02:50:47.144Z,19.87
2019-03-31T02:51:50.389Z,20.97
2019-03-31T02:52:53.604Z,20.68
2019-03-31T02:53:56.926Z,19.98
2019-03-31T02:55:00.453Z,19.95
2019-03-31T02:56:04.099Z,20.32
2019-03-31T02:57:07.654Z,19.27
2019-03-31T02:58:11.684Z,20.17
2019-03-31T02:59:17.132Z,20.25
2019-03-31T03:00:20.360Z,22.02
2019-03-31T03:01:25.114Z,21.70
2019-03-31T03:02:41.458Z,21.75
2019-03-31T03:03:38.255Z,21.45
2019-03-31T03:04:42.165Z,20.35
2019-03-31T03:05:45.620Z,21.55
2019-03-31T03:06:51.629Z,21.77
2019-03-31T03:07:56.754Z,20.40
2019-03-31T03:09:01.278Z,22.35
2019-03-31T03:10:05.487Z,20.85
2019-03-31T03:11:09.710Z,22.52
2019-03-31T03:12:14.093Z,20.90
2019-03-31T03:13:18.781Z,21.97
2019-03-31T03:14:26.102Z,22.87
2019-03-31T03:15:31.585Z,21.97
2019-03-31T03:16:34.795Z,22.90
2019-03-31T03:17:38.132Z,23.25
2019-03-31T03:18:41.375Z,21.82
2019-03-31T03:19:44.707Z,22.30
2019-03-31T03:20:47.884Z,22.98
2019-03-31T03:21:51.076Z,22.77
2019-03-31T03:22:54.393Z,21.90
2019-03-31T03:23:57.671Z,22.40
2019-03-31T03:25:00.961Z,21.10
2019-03-31T03:26:04.236Z,21.15
2019-03-31T03:27:07.524Z,21.23
2019-03-31T03:28:10.739Z,20.75
2019-03-31T03:29:14.055Z,20.62
2019-03-31T03:30:17.407Z,21.45
2019-03-31T03:31:20.871Z,20.55
2019-03-31T03:32:24.215Z,18.82
2019-03-31T03:33:27.437Z,19.57
2019-03-31T03:34:30.709Z,19.87
2019-03-31T03:35:33.894Z,18.70
2019-03-31T03:36:37.101Z,19.82
2019-03-31T03:37:40.358Z,19.48
2019-03-31T03:38:43.957Z,20.05
2019-03-31T03:39:47.133Z,18.98
2019-03-31T03:40:50.324Z,20.77
2019-03-31T03:41:53.587Z,19.50
2019-03-31T03:42:56.790Z,20.25
2019-03-31T03:44:02.545Z,20.00
2019-03-31T03:45:05.130Z,21.50
2019-03-31T03:46:08.364Z,22.48
2019-03-31T03:47:11.571Z,22.75
2019-03-31T03:48:14.737Z,23.70
2019-03-31T03:49:18.128Z,22.95
2019-03-31T03:50:21.414Z,23.87
2019-03-31T03:51:24.686Z,24.65
2019-03-31T03:52:27.941Z,23.30
2019-03-31T03:53:31.118Z,23.77
2019-03-31T03:54:34.362Z,26.62
2019-03-31T03:55:37.584Z,23.87
2019-03-31T03:56:40.846Z,24.27
2019-03-31T03:57:44.050Z,22.98
2019-03-31T03:58:47.261Z,25.17
2019-03-31T03:59:50.560Z,22.85
2019-03-31T04:00:53.781Z,22.82
2019-03-31T04:01:57.003Z,22.98
2019-03-31T04:03:00.321Z,24.02
2019-03-31T04:04:03.629Z,21.95
2019-03-31T04:05:06.906Z,22.32
2019-03-31T04:06:10.345Z,21.57
2019-03-31T04:07:13.550Z,21.82
2019-03-31T04:08:16.771Z,21.50
2019-03-31T04:09:20.042Z,22.35
2019-03-31T04:11:13.545Z,20.77
2019-03-31T04:12:16.717Z,20.52
2019-03-31T04:13:19.951Z,20.52
2019-03-31T04:14:23.146Z,20.72
2019-03-31T04:15:26.351Z,21.48
2019-03-31T04:16:29.647Z,21.17
2019-03-31T04:17:32.800Z,19.55
2019-03-31T04:18:35.990Z,21.05
2019-03-31T04:19:39.234Z,20.52
2019-03-31T04:20:42.421Z,21.07
2019-03-31T04:21:45.749Z,20.75
2019-03-31T04:22:48.941Z,20.70
2019-03-31T04:23:52.117Z,20.52
2019-03-31T04:24:55.379Z,20.77
2019-03-31T04:25:58.594Z,20.02
2019-03-31T04:27:01.927Z,19.15
2019-03-31T04:28:05.126Z,20.72
2019-03-31T04:29:08.349Z,20.23
2019-03-31T04:30:11.570Z,19.37
2019-03-31T04:31:14.937Z,19.42
2019-03-31T04:32:18.225Z,21.02
2019-03-31T04:33:21.416Z,21.10
2019-03-31T04:34:24.675Z,20.72
2019-03-31T04:35:27.859Z,20.00
2019-03-31T04:36:31.131Z,23.27
2019-03-31T04:37:34.453Z,21.33
2019-03-31T04:38:38.013Z,21.57
2019-03-31T04:39:41.249Z,20.92
2019-03-31T04:40:44.469Z,20.25
2019-03-31T04:41:47.668Z,19.48
2019-03-31T04:42:50.923Z,19.80
2019-03-31T04:43:54.128Z,20.75
2019-03-31T04:44:57.349Z,21.07
2019-03-31T04:46:00.565Z,20.00
2019-03-31T04:47:03.769Z,20.17
2019-03-31T04:48:07.043Z,19.90
2019-03-31T04:49:10.221Z,19.98
2019-03-31T04:50:13.594Z,19.80
2019-03-31T04:51:16.801Z,20.62
2019-03-31T04:52:19.995Z,19.67
2019-03-31T04:53:23.206Z,19.37
2019-03-31T04:54:26.451Z,18.95
2019-03-31T04:55:30.092Z,19.77
2019-03-31T04:56:33.300Z,19.12
2019-03-31T04:57:36.570Z,19.27
2019-03-31T04:58:39.825Z,20.27
2019-03-31T04:59:43.073Z,19.73
2019-03-31T05:00:46.336Z,18.70
2019-03-31T05:01:49.575Z,18.82
2019-03-31T05:02:52.766Z,19.32
2019-03-31T05:04:04.364Z,18.67
2019-03-31T05:05:01.011Z,20.25
2019-03-31T05:06:05.017Z,18.45
2019-03-31T05:07:08.533Z,19.70
2019-03-31T05:08:12.095Z,19.32
2019-03-31T05:09:15.440Z,19.40
2019-03-31T05:10:18.645Z,17.65
2019-03-31T05:11:21.866Z,19.12
2019-03-31T05:12:25.098Z,19.70
2019-03-31T05:13:28.385Z,19.82
2019-03-31T05:14:31.617Z,20.68
2019-03-31T05:15:34.820Z,20.75
2019-03-31T05:16:38.066Z,20.75
2019-03-31T05:17:41.366Z,20.25
2019-03-31T05:18:44.604Z,20.95
2019-03-31T05:19:47.845Z,21.23
2019-03-31T05:20:51.076Z,21.42
2019-03-31T05:21:54.265Z,23.12
2019-03-31T05:22:57.469Z,22.40
2019-03-31T05:24:00.669Z,22.73
2019-03-31T05:25:04.149Z,23.18
2019-03-31T05:26:07.336Z,22.50
2019-03-31T05:27:10.890Z,24.37
2019-03-31T05:28:14.077Z,23.22
2019-03-31T05:29:17.391Z,22.40
2019-03-31T05:30:20.681Z,20.77
2019-03-31T05:31:23.919Z,21.62
2019-03-31T05:32:27.464Z,23.05
2019-03-31T05:33:31.010Z,23.02
2019-03-31T05:34:34.272Z,22.13
2019-03-31T05:35:37.645Z,22.93
2019-03-31T05:36:40.844Z,22.40
2019-03-31T05:37:50.868Z,24.20
2019-03-31T05:38:49.089Z,22.87
2019-03-31T05:39:52.272Z,23.50
2019-03-31T05:40:55.590Z,23.02
2019-03-31T05:41:59.661Z,21.70
2019-03-31T05:43:02.889Z,21.60
2019-03-31T05:44:06.251Z,22.67
2019-03-31T05:45:11.369Z,22.67
2019-03-31T05:46:14.629Z,23.65
2019-03-31T05:47:17.830Z,22.25
2019-03-31T05:48:21.039Z,22.27
2019-03-31T05:49:24.224Z,22.67
2019-03-31T05:50:27.818Z,24.65
2019-03-31T05:51:31.105Z,24.07
2019-03-31T05:52:34.304Z,24.70
2019-03-31T05:53:37.504Z,24.43
2019-03-31T05:54:40.711Z,27.32
2019-03-31T05:55:43.957Z,27.42
2019-03-31T05:56:47.289Z,27.30
2019-03-31T05:57:50.721Z,28.47
2019-03-31T05:58:53.937Z,28.45
2019-03-31T05:59:57.270Z,29.27
2019-03-31T06:01:00.871Z,28.73
2019-03-31T06:02:04.153Z,30.43
2019-03-31T06:03:07.413Z,29.02
2019-03-31T06:04:11.498Z,30.52
2019-03-31T06:05:17.505Z,29.80
2019-03-31T06:06:20.709Z,29.57
2019-03-31T06:07:24.068Z,28.25
2019-03-31T06:08:27.285Z,29.42
2019-03-31T06:09:30.493Z,29.77
2019-03-31T06:10:33.693Z,27.98
2019-03-31T06:11:36.917Z,29.85
2019-03-31T06:12:40.169Z,27.98
2019-03-31T06:13:43.381Z,27.65
2019-03-31T06:14:46.973Z,29.18
2019-03-31T06:15:50.546Z,29.07
2019-03-31T06:16:53.678Z,27.95
2019-03-31T06:17:56.979Z,29.05
2019-03-31T06:19:00.169Z,27.55
2019-03-31T06:20:04.098Z,26.77
2019-03-31T06:21:07.309Z,27.80
2019-03-31T06:22:10.565Z,27.62
2019-03-31T06:23:13.821Z,26.70
2019-03-31T06:24:17.022Z,27.00
2019-03-31T06:25:23.205Z,26.73
2019-03-31T06:26:26.397Z,28.00
2019-03-31T06:27:29.626Z,27.48
2019-03-31T06:28:32.844Z,27.67
2019-03-31T06:29:36.037Z,27.95
2019-03-31T06:30:39.206Z,28.02
2019-03-31T06:31:42.386Z,28.55
2019-03-31T06:32:45.620Z,28.70
2019-03-31T06:33:48.846Z,28.00
2019-03-31T06:34:52.072Z,29.52
2019-03-31T06:35:55.337Z,26.45
2019-03-31T06:36:58.537Z,28.15
2019-03-31T06:38:01.731Z,27.13
2019-03-31T06:39:06.570Z,27.58
2019-03-31T06:40:09.863Z,26.55
2019-03-31T06:41:13.235Z,28.47
2019-03-31T06:42:16.466Z,26.02
2019-03-31T06:43:19.798Z,27.07
2019-03-31T06:44:23.025Z,28.30
2019-03-31T06:45:26.381Z,26.80
2019-03-31T06:46:29.958Z,25.68
2019-03-31T06:47:33.179Z,26.57
2019-03-31T06:48:36.413Z,25.12
2019-03-31T06:49:39.646Z,25.77
2019-03-31T06:50:42.877Z,25.68
2019-03-31T06:51:46.096Z,26.00
2019-03-31T06:52:49.280Z,25.45
2019-03-31T06:53:52.666Z,25.27
2019-03-31T06:54:55.880Z,25.90
2019-03-31T06:55:59.171Z,24.75
2019-03-31T06:57:02.428Z,26.00
2019-03-31T06:58:05.766Z,25.23
2019-03-31T06:59:08.990Z,23.40
2019-03-31T07:00:12.506Z,24.35
2019-03-31T07:01:15.832Z,25.15
2019-03-31T07:02:19.043Z,23.20
2019-03-31T07:03:22.232Z,23.32
2019-03-31T07:04:25.440Z,22.85
2019-03-31T07:05:28.716Z,21.12
2019-03-31T07:06:31.945Z,20.45
2019-03-31T07:07:35.392Z,20.62
2019-03-31T07:08:38.621Z,20.60
2019-03-31T07:09:41.858Z,19.67
2019-03-31T07:10:45.304Z,19.20
2019-03-31T07:11:48.617Z,20.95
2019-03-31T07:12:51.818Z,20.23
2019-03-31T07:13:55.027Z,19.37
2019-03-31T07:14:58.278Z,19.73
2019-03-31T07:16:01.592Z,17.55
2019-03-31T07:17:04.804Z,17.07
2019-03-31T07:18:08.004Z,17.12
2019-03-31T07:19:11.221Z,17.12
2019-03-31T07:20:14.622Z,16.17
2019-03-31T07:21:17.899Z,17.57
2019-03-31T07:22:24.263Z,16.77
2019-03-31T07:23:26.188Z,16.15
2019-03-31T07:24:29.393Z,17.15
2019-03-31T07:25:32.646Z,16.37
2019-03-31T07:26:35.909Z,16.75
2019-03-31T07:27:39.284Z,16.48
2019-03-31T07:28:42.548Z,17.05
2019-03-31T07:29:45.767Z,16.82
2019-03-31T07:30:48.973Z,17.32
2019-03-31T07:31:52.233Z,16.57
2019-03-31T07:32:55.492Z,18.10
2019-03-31T07:33:58.708Z,16.30
2019-03-31T07:35:02.010Z,18.48
2019-03-31T07:36:05.304Z,17.98
2019-03-31T07:37:08.615Z,18.60
2019-03-31T07:38:11.829Z,18.57
2019-03-31T07:39:15.435Z,18.70
2019-03-31T07:40:19.999Z,19.35
2019-03-31T07:41:23.699Z,19.65
2019-03-31T07:42:27.242Z,19.40
2019-03-31T07:43:30.528Z,19.65
2019-03-31T07:44:33.717Z,18.77
2019-03-31T07:45:36.974Z,19.75
2019-03-31T07:46:40.207Z,19.67
2019-03-31T07:47:43.538Z,20.55
2019-03-31T07:48:47.109Z,19.60
2019-03-31T07:49:50.297Z,20.25
2019-03-31T07:50:53.634Z,21.30
2019-03-31T07:51:56.869Z,20.32
2019-03-31T07:53:00.106Z,19.80
2019-03-31T07:54:03.322Z,18.67
2019-03-31T07:55:07.845Z,19.90
2019-03-31T07:56:11.436Z,20.65
2019-03-31T07:57:14.682Z,19.80
2019-03-31T07:58:17.968Z,19.70
2019-03-31T07:59:21.265Z,20.70
2019-03-31T08:00:25.151Z,19.65
2019-03-31T08:01:28.478Z,20.30
2019-03-31T08:02:31.660Z,19.75
2019-03-31T08:03:34.901Z,19.70
2019-03-31T08:04:38.131Z,19.23
2019-03-31T08:05:41.336Z,18.92
2019-03-31T08:06:44.574Z,20.37
2019-03-31T08:07:47.792Z,20.23
2019-03-31T08:08:53.326Z,20.02
2019-03-31T08:09:56.087Z,21.77
2019-03-31T08:10:59.376Z,20.85
2019-03-31T08:12:02.594Z,21.80
2019-03-31T08:13:05.966Z,20.65
2019-03-31T08:14:09.173Z,21.50
2019-03-31T08:15:12.557Z,21.12
2019-03-31T08:16:15.757Z,21.52
2019-03-31T08:17:18.988Z,24.18
2019-03-31T08:18:22.212Z,22.95
2019-03-31T08:19:25.511Z,23.87
2019-03-31T08:20:28.729Z,23.12
2019-03-31T08:21:32.101Z,22.85
2019-03-31T08:22:35.273Z,22.98
2019-03-31T08:23:38.568Z,22.73
2019-03-31T08:24:44.857Z,22.80
2019-03-31T08:25:48.188Z,23.55
2019-03-31T08:26:51.381Z,24.80
2019-03-31T08:27:54.602Z,25.12
2019-03-31T08:28:58.677Z,23.80
2019-03-31T08:30:02.007Z,26.93
2019-03-31T08:31:05.212Z,26.82
2019-03-31T08:32:08.454Z,27.95
2019-03-31T08:33:11.668Z,27.80
2019-03-31T08:34:14.878Z,26.05
2019-03-31T08:35:18.208Z,25.88
2019-03-31T08:36:21.409Z,25.65
2019-03-31T08:37:24.616Z,28.35
2019-03-31T08:38:27.804Z,26.95
2019-03-31T08:39:31.086Z,29.20
2019-03-31T08:40:37.141Z,28.42
2019-03-31T08:41:40.378Z,28.32
2019-03-31T08:42:43.581Z,30.02
2019-03-31T08:43:46.858Z,29.95
2019-03-31T08:44:50.076Z,29.65
2019-03-31T08:45:53.311Z,30.82
2019-03-31T08:46:56.532Z,30.02
2019-03-31T08:47:59.775Z,27.10
2019-03-31T08:49:03.284Z,31.85
2019-03-31T08:50:07.843Z,28.40
2019-03-31T08:51:11.099Z,26.30
2019-03-31T08:52:14.493Z,28.62
2019-03-31T08:53:17.980Z,29.60
2019-03-31T08:54:24.213Z,27.22
2019-03-31T08:55:27.393Z,24.80
2019-03-31T08:56:30.677Z,23.45
2019-03-31T08:57:33.937Z,25.12
2019-03-31T08:58:37.132Z,25.27
2019-03-31T08:59:40.360Z,25.27
2019-03-31T09:00:53.356Z,23.77
2019-03-31T09:01:56.554Z,21.87
2019-03-31T09:02:59.772Z,19.45
2019-03-31T09:04:03.074Z,19.25
2019-03-31T09:05:08.007Z,19.45
2019-03-31T09:06:11.220Z,20.08
2019-03-31T09:07:14.451Z,19.07
2019-03-31T09:08:17.688Z,19.27
2019-03-31T09:09:22.012Z,19.52
2019-03-31T09:10:25.279Z,19.17
2019-03-31T09:11:28.480Z,18.42
2019-03-31T09:12:31.715Z,17.57
2019-03-31T09:13:35.120Z,18.80
2019-03-31T09:14:38.338Z,18.57
2019-03-31T09:15:41.561Z,19.57
2019-03-31T09:16:44.788Z,18.42
2019-03-31T09:17:48.042Z,17.25
2019-03-31T09:18:51.298Z,17.40
2019-03-31T09:19:54.557Z,17.65
2019-03-31T09:20:57.772Z,15.63
2019-03-31T09:22:00.960Z,16.00
2019-03-31T09:23:04.226Z,14.73
2019-03-31T09:24:07.521Z,15.48
2019-03-31T09:25:10.837Z,16.32
2019-03-31T09:26:14.118Z,15.90
2019-03-31T09:27:17.258Z,14.70
2019-03-31T09:28:20.525Z,15.75
2019-03-31T09:29:23.733Z,15.68
2019-03-31T09:30:26.957Z,14.00
2019-03-31T09:31:30.177Z,13.75
2019-03-31T09:32:33.379Z,13.95
2019-03-31T09:33:39.326Z,14.45
2019-03-31T09:34:44.258Z,14.60
2019-03-31T09:35:47.470Z,15.50
2019-03-31T09:36:50.962Z,14.63
2019-03-31T09:37:54.479Z,15.18
2019-03-31T09:38:57.725Z,16.73
2019-03-31T09:40:01.005Z,16.02
2019-03-31T09:41:04.209Z,15.13
2019-03-31T09:42:07.468Z,15.43
2019-03-31T09:43:10.669Z,14.50
2019-03-31T09:44:13.906Z,14.98
2019-03-31T09:45:17.323Z,14.50
2019-03-31T09:46:20.952Z,13.58
2019-03-31T09:47:24.232Z,13.80
2019-03-31T09:48:27.414Z,13.65
2019-03-31T09:49:30.697Z,13.18
2019-03-31T09:50:33.912Z,12.33
2019-03-31T09:51:37.150Z,11.10
2019-03-31T09:52:40.480Z,11.88
2019-03-31T09:53:43.708Z,11.30
2019-03-31T09:54:48.381Z,10.68
2019-03-31T09:55:51.601Z,11.22
2019-03-31T09:56:54.968Z,10.40
2019-03-31T09:57:58.209Z,11.33
2019-03-31T09:59:01.532Z,12.00
2019-03-31T10:00:06.318Z,11.70
2019-03-31T10:01:11.150Z,11.73
2019-03-31T10:02:14.565Z,12.07
2019-03-31T10:03:18.286Z,11.10
2019-03-31T10:04:21.561Z,12.18
2019-03-31T10:05:24.768Z,10.65
2019-03-31T10:07:44.524Z,12.45
2019-03-31T10:08:48.187Z,10.55
2019-03-31T10:09:51.590Z,11.22
2019-03-31T10:10:54.834Z,11.30
2019-03-31T10:11:58.821Z,11.40
2019-03-31T10:13:02.199Z,10.25
2019-03-31T10:14:06.152Z,10.10
2019-03-31T10:15:09.593Z,9.75
2019-03-31T10:16:13.110Z,9.80
2019-03-31T10:17:16.325Z,10.20
2019-03-31T10:18:19.542Z,10.15
2019-03-31T10:19:22.761Z,10.05
2019-03-31T10:20:26.096Z,9.15
2019-03-31T10:21:29.419Z,9.00
2019-03-31T10:22:32.741Z,9.55
2019-03-31T10:23:35.994Z,10.15
2019-03-31T10:24:39.724Z,9.43
2019-03-31T10:25:43.001Z,9.90
2019-03-31T10:26:46.273Z,10.23
2019-03-31T10:27:49.490Z,10.50
2019-03-31T10:28:53.203Z,10.32
2019-03-31T10:29:56.575Z,11.08
2019-03-31T10:30:59.899Z,10.10
2019-03-31T10:32:03.165Z,9.85
2019-03-31T10:33:07.072Z,10.45
2019-03-31T10:34:10.452Z,10.95
2019-03-31T10:35:13.657Z,9.70
2019-03-31T10:36:16.889Z,9.98
2019-03-31T10:37:20.248Z,10.08
2019-03-31T10:38:23.675Z,9.45
2019-03-31T10:39:26.922Z,9.00
2019-03-31T10:40:30.357Z,9.38
2019-03-31T10:41:33.612Z,9.05
2019-03-31T10:42:36.876Z,9.30
2019-03-31T10:43:40.105Z,9.73
2019-03-31T10:44:43.364Z,9.48
2019-03-31T10:45:46.616Z,9.95
2019-03-31T10:46:50.134Z,9.53
2019-03-31T10:47:53.348Z,10.48
2019-03-31T10:48:56.561Z,9.80
2019-03-31T10:49:59.762Z,10.48
2019-03-31T10:51:03.081Z,9.48
2019-03-31T10:52:06.401Z,9.30
2019-03-31T10:53:09.736Z,9.83
2019-03-31T10:54:12.933Z,9.20
2019-03-31T10:55:17.029Z,9.83
2019-03-31T10:56:20.290Z,9.40
2019-03-31T10:57:23.503Z,9.90
2019-03-31T10:58:26.891Z,9.35
2019-03-31T10:59:30.429Z,9.00
2019-03-31T11:00:34.946Z,9.88
2019-03-31T11:01:38.542Z,9.55
2019-03-31T11:02:42.034Z,9.25
2019-03-31T11:03:45.734Z,9.13
2019-03-31T11:04:48.961Z,9.20
2019-03-31T11:05:52.150Z,8.75
2019-03-31T11:06:59.555Z,8.48
2019-03-31T11:08:01.324Z,9.98
2019-03-31T11:09:06.161Z,8.80
2019-03-31T11:10:09.688Z,8.10
2019-03-31T11:11:12.878Z,8.40
2019-03-31T11:12:16.099Z,8.88
2019-03-31T11:13:19.385Z,8.93
2019-03-31T11:14:22.700Z,9.13
2019-03-31T11:15:25.902Z,8.90
2019-03-31T11:16:29.356Z,8.33
2019-03-31T11:17:32.742Z,8.48
2019-03-31T11:18:36.037Z,8.38
2019-03-31T11:19:39.293Z,9.38
2019-03-31T11:20:42.856Z,8.13
2019-03-31T11:22:08.176Z,8.55
2019-03-31T11:23:22.265Z,8.75
2019-03-31T11:24:25.412Z,8.58
2019-03-31T11:25:29.633Z,8.08
2019-03-31T11:26:32.983Z,8.43
2019-03-31T11:27:36.243Z,7.95
2019-03-31T11:28:39.451Z,8.45
2019-03-31T11:29:42.909Z,9.20
2019-03-31T11:30:46.261Z,9.15
2019-03-31T11:31:49.490Z,7.67
2019-03-31T11:32:52.685Z,8.23
2019-03-31T11:33:56.076Z,7.92
2019-03-31T11:34:59.405Z,8.30
2019-03-31T11:36:02.693Z,7.40
2019-03-31T11:37:13.409Z,8.17
2019-03-31T11:38:11.021Z,7.83
2019-03-31T11:39:16.247Z,8.80
2019-03-31T11:40:19.386Z,8.33
2019-03-31T11:41:22.630Z,8.70
2019-03-31T11:42:25.825Z,8.47
2019-03-31T11:43:29.034Z,8.53
2019-03-31T11:44:32.290Z,8.13
2019-03-31T11:45:35.521Z,7.90
2019-03-31T11:46:38.791Z,7.67
2019-03-31T11:47:42.762Z,8.17
2019-03-31T11:48:46.074Z,8.67
2019-03-31T11:49:49.365Z,8.57
2019-03-31T11:50:52.584Z,8.27
2019-03-31T11:51:55.863Z,7.67
2019-03-31T11:52:59.108Z,7.77
2019-03-31T11:54:02.354Z,8.13
2019-03-31T11:55:05.750Z,8.37
2019-03-31T11:56:09.037Z,9.23
2019-03-31T11:57:12.322Z,8.73
2019-03-31T11:58:15.515Z,8.47
2019-03-31T11:59:20.868Z,8.63
2019-03-31T12:00:24.248Z,8.40
2019-03-31T12:01:28.337Z,8.07
2019-03-31T12:02:31.589Z,7.60
2019-03-31T12:03:34.927Z,8.33
2019-03-31T12:04:38.244Z,8.20
2019-03-31T12:05:41.477Z,9.17
2019-03-31T12:06:44.670Z,8.30
2019-03-31T12:07:47.948Z,8.40
2019-03-31T12:08:51.653Z,8.00
2019-03-31T12:09:54.956Z,7.80
2019-03-31T12:10:58.233Z,8.03
2019-03-31T12:12:01.466Z,7.70
2019-03-31T12:13:05.162Z,8.40
2019-03-31T12:14:08.512Z,7.77
2019-03-31T12:15:11.955Z,7.40
2019-03-31T12:16:15.149Z,7.83
2019-03-31T12:17:18.945Z,6.67
2019-03-31T12:18:22.227Z,7.60
2019-03-31T12:19:25.482Z,7.87
2019-03-31T12:20:28.713Z,8.47
2019-03-31T12:21:32.157Z,8.23
2019-03-31T12:22:35.838Z,8.87
2019-03-31T12:23:39.082Z,19.10
2019-03-31T12:24:42.282Z,7.53
2019-03-31T12:25:45.528Z,7.67
2019-03-31T12:26:48.717Z,7.70
2019-03-31T12:27:51.938Z,7.33
2019-03-31T12:28:55.357Z,7.63
2019-03-31T12:29:58.517Z,7.50
2019-03-31T12:31:01.864Z,7.23
2019-03-31T12:32:05.068Z,8.30
2019-03-31T12:33:08.268Z,6.53
2019-03-31T12:34:11.513Z,7.00
2019-03-31T12:35:15.335Z,7.47
2019-03-31T12:36:18.641Z,7.40
2019-03-31T12:37:22.430Z,7.07
2019-03-31T12:38:25.832Z,6.97
2019-03-31T12:39:29.105Z,7.20
2019-03-31T12:40:34.704Z,6.57
2019-03-31T12:41:37.985Z,7.27
2019-03-31T12:42:41.266Z,6.50
2019-03-31T12:43:44.496Z,5.93
2019-03-31T12:44:47.752Z,6.20
2019-03-31T12:45:50.981Z,6.07
2019-03-31T12:46:56.131Z,5.37
2019-03-31T12:48:01.310Z,4.80
2019-03-31T12:49:04.819Z,5.70
2019-03-31T12:50:08.224Z,5.47
2019-03-31T12:51:11.472Z,6.13
2019-03-31T12:52:14.675Z,6.10
2019-03-31T12:53:17.909Z,6.53
2019-03-31T12:54:21.122Z,5.93
2019-03-31T12:55:24.411Z,5.53
2019-03-31T12:56:27.724Z,5.07
2019-03-31T12:57:30.951Z,6.30
2019-03-31T12:58:34.402Z,5.80
2019-03-31T12:59:37.596Z,5.50
2019-03-31T13:00:40.986Z,5.67
2019-03-31T13:01:44.244Z,7.07
2019-03-31T13:02:47.501Z,6.20
2019-03-31T13:03:50.765Z,6.07
2019-03-31T13:04:54.062Z,5.47
2019-03-31T13:05:57.289Z,6.07
2019-03-31T13:07:00.487Z,6.13
2019-03-31T13:08:03.733Z,6.33
2019-03-31T13:09:07.878Z,5.87
2019-03-31T13:10:11.383Z,6.63
2019-03-31T13:11:14.629Z,6.20
2019-03-31T13:12:17.867Z,6.40
2019-03-31T13:13:21.130Z,5.80
2019-03-31T13:14:24.429Z,5.70
2019-03-31T13:15:27.696Z,5.50
2019-03-31T13:16:30.926Z,5.93
2019-03-31T13:17:34.200Z,5.57
2019-03-31T13:18:37.403Z,5.40
2019-03-31T13:19:40.650Z,5.50
2019-03-31T13:20:43.867Z,5.43
2019-03-31T13:21:47.098Z,5.73
2019-03-31T13:22:50.339Z,6.40
2019-03-31T13:23:53.580Z,5.57
2019-03-31T13:24:56.761Z,5.20
2019-03-31T13:25:59.972Z,5.97
2019-03-31T13:27:03.314Z,5.53
2019-03-31T13:28:06.552Z,6.63
2019-03-31T13:29:09.804Z,6.90
2019-03-31T13:30:13.147Z,5.30
2019-03-31T13:31:16.810Z,5.93
2019-03-31T13:32:20.537Z,5.60
2019-03-31T13:33:23.870Z,6.20
2019-03-31T13:34:27.314Z,6.60
2019-03-31T13:35:30.591Z,5.67
2019-03-31T13:36:33.808Z,6.00
2019-03-31T13:37:37.058Z,5.97
2019-03-31T13:38:40.240Z,6.37
2019-03-31T13:39:43.518Z,6.10
2019-03-31T13:40:48.901Z,6.30
2019-03-31T13:41:51.729Z,6.10
2019-03-31T13:42:54.961Z,6.67
2019-03-31T13:43:58.164Z,6.87
2019-03-31T13:45:01.361Z,6.83
2019-03-31T13:46:04.569Z,6.63
2019-03-31T13:47:07.848Z,6.40